createdAt,value
2022-08-02T00:01:00.074Z,8.20
2022-08-02T00:03:27.981Z,4.80
2022-08-02T00:05:56.068Z,5.53
2022-08-02T00:08:24.035Z,5.67
2022-08-02T00:10:51.871Z,5.93
2022-08-02T00:13:19.937Z,5.73
2022-08-02T00:15:49.117Z,7.60
2022-08-02T00:18:17.068Z,5.80
2022-08-02T00:20:44.909Z,6.20
2022-08-02T00:23:13.952Z,6.27
2022-08-02T00:25:54.354Z,5.83
2022-08-02T00:28:27.172Z,5.77
2022-08-02T00:30:57.233Z,4.50
2022-08-02T00:34:26.779Z,8.77
2022-08-02T00:36:13.140Z,5.87
2022-08-02T00:38:40.965Z,7.37
2022-08-02T00:41:13.305Z,5.30
2022-08-02T00:43:41.450Z,6.83
2022-08-02T00:46:10.870Z,6.27
2022-08-02T00:48:43.016Z,6.63
2022-08-02T00:51:11.341Z,5.60
2022-08-02T00:53:39.242Z,6.20
2022-08-02T00:56:07.248Z,5.07
2022-08-02T00:58:35.174Z,6.27
2022-08-02T01:01:03.591Z,5.00
2022-08-02T01:03:32.983Z,5.53
2022-08-02T01:06:16.181Z,9.00
2022-08-02T01:08:44.486Z,4.97
2022-08-02T01:11:12.527Z,9.97
2022-08-02T01:13:40.358Z,5.20
2022-08-02T01:16:14.916Z,6.90
2022-08-02T01:18:46.828Z,5.67
2022-08-02T01:21:34.605Z,5.60
2022-08-02T01:24:17.203Z,5.13
2022-08-02T01:26:47.961Z,5.33
2022-08-02T01:29:20.018Z,4.73
2022-08-02T01:31:50.452Z,4.87
2022-08-02T01:34:20.154Z,5.03
2022-08-02T01:36:51.118Z,5.23
2022-08-02T01:39:26.500Z,5.40
2022-08-02T01:42:00.085Z,5.30
2022-08-02T01:44:30.116Z,6.03
2022-08-02T01:46:59.163Z,5.50
2022-08-02T01:49:27.329Z,6.20
2022-08-02T01:52:14.143Z,7.73
2022-08-02T01:54:42.106Z,7.43
2022-08-02T01:57:11.468Z,9.00
2022-08-02T01:59:40.782Z,5.53
2022-08-02T02:02:09.443Z,6.33
2022-08-02T02:04:38.025Z,5.07
2022-08-02T02:07:05.986Z,5.70
2022-08-02T02:09:35.474Z,5.40
2022-08-02T02:12:17.588Z,4.90
2022-08-02T02:15:07.307Z,5.43
2022-08-02T02:18:10.497Z,6.40
2022-08-02T02:20:22.938Z,6.20
2022-08-02T02:22:53.407Z,6.07
2022-08-02T02:25:26.873Z,5.70
2022-08-02T02:28:06.059Z,6.33
2022-08-02T02:30:35.327Z,5.90
2022-08-02T02:33:03.716Z,5.80
2022-08-02T02:35:33.224Z,5.83
2022-08-02T02:38:02.386Z,6.93
2022-08-02T02:40:30.347Z,5.90
2022-08-02T02:42:58.338Z,6.70
2022-08-02T02:45:26.344Z,6.73
2022-08-02T02:47:55.570Z,6.40
2022-08-02T02:50:24.241Z,6.37
2022-08-02T02:52:52.098Z,6.53
2022-08-02T02:55:19.986Z,7.40
2022-08-02T02:57:47.807Z,6.50
2022-08-02T03:00:16.372Z,6.50
2022-08-02T03:02:45.027Z,6.63
2022-08-02T03:05:14.416Z,6.23
2022-08-02T03:07:42.243Z,6.77
2022-08-02T03:10:11.611Z,6.50
2022-08-02T03:12:43.719Z,6.60
2022-08-02T03:15:13.377Z,7.33
2022-08-02T03:17:42.053Z,7.67
2022-08-02T03:20:12.053Z,7.73
2022-08-02T03:22:41.438Z,5.90
2022-08-02T03:25:10.263Z,6.83
2022-08-02T03:27:38.068Z,6.50
2022-08-02T03:30:07.049Z,7.20
2022-08-02T03:32:35.070Z,7.10
2022-08-02T03:35:03.560Z,7.10
2022-08-02T03:37:31.892Z,7.10
2022-08-02T03:40:01.192Z,6.73
2022-08-02T03:42:29.924Z,6.70
2022-08-02T03:44:58.147Z,6.57
2022-08-02T03:47:26.143Z,6.50
2022-08-02T03:49:54.215Z,6.07
2022-08-02T03:52:22.577Z,6.87
2022-08-02T03:54:50.686Z,7.20
2022-08-02T03:57:20.374Z,6.23
2022-08-02T03:59:48.581Z,6.63
2022-08-02T04:02:16.803Z,7.93
2022-08-02T04:04:44.838Z,6.50
2022-08-02T04:07:12.962Z,7.17
2022-08-02T04:09:40.956Z,6.83
2022-08-02T04:12:09.418Z,7.50
2022-08-02T04:14:38.908Z,7.97
2022-08-02T04:17:08.651Z,7.57
2022-08-02T04:19:39.742Z,7.73
2022-08-02T04:22:08.983Z,7.70
2022-08-02T04:24:39.397Z,7.47
2022-08-02T04:27:49.025Z,7.93
2022-08-02T04:29:56.680Z,7.90
2022-08-02T04:32:24.610Z,7.60
2022-08-02T04:35:18.287Z,7.23
2022-08-02T04:38:08.620Z,6.70
2022-08-02T04:40:28.436Z,7.80
2022-08-02T04:42:56.392Z,8.13
2022-08-02T04:45:25.966Z,6.97
2022-08-02T04:48:01.995Z,10.33
2022-08-02T04:50:32.256Z,7.37
2022-08-02T04:53:00.358Z,8.23
2022-08-02T04:55:31.013Z,7.47
2022-08-02T04:57:59.256Z,7.10
2022-08-02T05:00:29.321Z,10.13
2022-08-02T05:02:57.367Z,7.70
2022-08-02T05:05:25.649Z,11.20
2022-08-02T05:07:53.719Z,7.87
2022-08-02T05:10:22.521Z,8.13
2022-08-02T05:12:53.152Z,8.60
2022-08-02T05:15:21.415Z,8.30
2022-08-02T05:17:56.399Z,9.03
2022-08-02T05:20:24.797Z,7.40
2022-08-02T05:22:58.281Z,9.57
2022-08-02T05:25:28.620Z,8.03
2022-08-02T05:27:56.756Z,7.93
2022-08-02T05:30:25.184Z,7.37
2022-08-02T05:32:54.808Z,7.43
2022-08-02T05:35:24.323Z,8.47
2022-08-02T05:37:52.650Z,7.20
2022-08-02T05:40:25.338Z,8.37
2022-08-02T05:42:54.387Z,7.03
2022-08-02T05:45:22.490Z,7.70
2022-08-02T05:47:50.857Z,7.00
2022-08-02T05:50:20.969Z,7.13
2022-08-02T05:52:52.670Z,6.63
2022-08-02T05:55:35.090Z,11.47
2022-08-02T05:58:04.688Z,7.37
2022-08-02T06:00:33.636Z,7.50
2022-08-02T06:03:19.561Z,10.13
2022-08-02T06:05:52.503Z,6.47
2022-08-02T06:08:23.614Z,6.80
2022-08-02T06:10:52.980Z,6.77
2022-08-02T06:13:46.721Z,6.27
2022-08-02T06:16:14.985Z,6.07
2022-08-02T06:18:46.447Z,6.13
2022-08-02T06:22:34.891Z,6.47
2022-08-02T06:24:06.676Z,5.90
2022-08-02T06:26:34.981Z,6.82
2022-08-02T06:29:03.239Z,5.53
2022-08-02T06:31:31.463Z,6.97
2022-08-02T06:34:02.433Z,8.27
2022-08-02T06:36:35.638Z,6.35
2022-08-02T06:40:02.401Z,6.18
2022-08-02T06:42:34.056Z,6.63
2022-08-02T06:45:02.056Z,5.85
2022-08-02T06:47:30.257Z,5.90
2022-08-02T06:49:58.538Z,6.15
2022-08-02T06:52:30.044Z,6.43
2022-08-02T06:54:59.659Z,5.75
2022-08-02T06:57:30.747Z,6.35
2022-08-02T07:00:03.369Z,6.53
2022-08-02T07:02:53.549Z,6.55
2022-08-02T07:05:28.729Z,6.53
2022-08-02T07:07:58.273Z,5.68
2022-08-02T07:10:27.854Z,5.80
2022-08-02T07:12:59.913Z,4.72
2022-08-02T07:15:31.565Z,6.60
2022-08-02T07:18:04.980Z,6.00
2022-08-02T07:20:33.242Z,4.88
2022-08-02T07:23:06.601Z,4.88
2022-08-02T07:26:01.770Z,5.00
2022-08-02T07:28:29.438Z,4.50
2022-08-02T07:31:00.379Z,5.75
2022-08-02T07:33:38.220Z,4.85
2022-08-02T07:36:16.714Z,5.15
2022-08-02T07:38:53.931Z,4.15
2022-08-02T07:41:28.088Z,4.65
2022-08-02T07:43:58.712Z,3.08
2022-08-02T07:46:28.881Z,4.05
2022-08-02T07:49:01.241Z,3.20
2022-08-02T07:51:35.980Z,3.75
2022-08-02T07:54:05.731Z,3.40
2022-08-02T07:56:44.797Z,3.28
2022-08-02T07:59:16.961Z,3.38
2022-08-02T08:01:59.253Z,3.08
2022-08-02T08:04:39.099Z,3.53
2022-08-02T08:07:13.577Z,3.13
2022-08-02T08:09:47.679Z,3.95
2022-08-02T08:12:16.766Z,2.65
2022-08-02T08:14:45.187Z,3.58
2022-08-02T08:17:23.040Z,2.70
2022-08-02T08:20:12.803Z,4.20
2022-08-02T08:22:44.135Z,2.50
2022-08-02T08:25:20.861Z,2.35
2022-08-02T08:27:51.425Z,2.88
2022-08-02T08:30:19.503Z,3.17
2022-08-02T08:32:47.584Z,3.78
2022-08-02T08:35:15.513Z,4.45
2022-08-02T08:37:44.436Z,2.83
2022-08-02T08:40:19.603Z,2.80
2022-08-02T08:43:08.876Z,2.22
2022-08-02T08:45:37.073Z,2.65
2022-08-02T08:48:30.569Z,2.42
2022-08-02T08:51:03.107Z,2.22
2022-08-02T08:53:36.907Z,2.35
2022-08-02T08:56:15.696Z,2.40
2022-08-02T08:58:47.605Z,2.28
2022-08-02T09:01:16.978Z,2.42
2022-08-02T09:03:50.679Z,3.33
2022-08-02T09:06:35.710Z,2.80
2022-08-02T09:09:25.646Z,3.00
2022-08-02T09:11:59.177Z,3.20
2022-08-02T09:14:33.087Z,2.72
2022-08-02T09:17:40.523Z,2.70
2022-08-02T09:20:14.012Z,3.10
2022-08-02T09:22:48.420Z,2.88
2022-08-02T09:25:21.761Z,3.65
2022-08-02T09:27:53.659Z,2.95
2022-08-02T09:30:24.388Z,3.00
2022-08-02T09:33:00.333Z,3.25
2022-08-02T09:36:07.089Z,3.42
2022-08-02T09:38:23.592Z,3.50
2022-08-02T09:41:15.908Z,3.10
2022-08-02T09:44:03.365Z,2.85
2022-08-02T09:46:38.251Z,3.65
2022-08-02T09:49:10.345Z,4.50
2022-08-02T09:51:50.247Z,2.90
2022-08-02T09:54:19.125Z,3.60
2022-08-02T09:56:49.103Z,3.90
2022-08-02T09:59:22.928Z,3.38
2022-08-02T10:02:01.495Z,3.70
2022-08-02T10:04:31.445Z,3.58
2022-08-02T10:07:03.911Z,3.92
2022-08-02T10:09:32.488Z,3.75
2022-08-02T10:12:00.694Z,3.75
2022-08-02T10:14:29.994Z,3.90
2022-08-02T10:16:58.321Z,4.60
2022-08-02T10:20:03.329Z,4.05
2022-08-02T10:22:16.093Z,3.90
2022-08-02T10:24:48.434Z,3.45
2022-08-02T10:27:21.199Z,3.17
2022-08-02T10:29:54.911Z,3.10
2022-08-02T10:32:27.570Z,3.40
2022-08-02T10:34:57.565Z,4.07
2022-08-02T10:37:31.879Z,3.75
2022-08-02T10:40:00.400Z,3.92
2022-08-02T10:42:48.122Z,4.97
2022-08-02T10:45:19.948Z,3.35
2022-08-02T10:48:04.701Z,3.70
2022-08-02T10:50:54.882Z,4.03
2022-08-02T10:53:27.083Z,3.90
2022-08-02T10:55:56.068Z,3.97
2022-08-02T10:58:29.441Z,3.38
2022-08-02T11:01:00.347Z,3.63
2022-08-02T11:03:39.706Z,6.30
2022-08-02T11:06:09.033Z,3.80
2022-08-02T11:09:31.478Z,3.97
2022-08-02T11:12:04.893Z,3.30
2022-08-02T11:14:33.916Z,3.13
2022-08-02T11:17:18.062Z,3.90
2022-08-02T11:20:21.053Z,4.25
2022-08-02T11:22:49.920Z,5.82
2022-08-02T11:26:02.750Z,3.70
2022-08-02T11:28:25.840Z,5.65
2022-08-02T11:31:01.245Z,3.67
2022-08-02T11:33:36.158Z,5.25
2022-08-02T11:36:05.970Z,3.55
2022-08-02T11:38:34.068Z,3.58
2022-08-02T11:41:06.103Z,3.70
2022-08-02T11:43:38.159Z,3.92
2022-08-02T11:46:06.714Z,3.78
2022-08-02T11:48:37.931Z,3.50
2022-08-02T11:51:07.303Z,4.30
2022-08-02T11:53:46.027Z,3.35
2022-08-02T11:56:14.284Z,4.00
2022-08-02T11:59:03.273Z,3.45
2022-08-02T12:01:32.427Z,6.75
2022-08-02T12:04:18.187Z,3.95
2022-08-02T12:06:46.457Z,4.07
2022-08-02T12:09:18.932Z,3.45
2022-08-02T12:11:50.070Z,3.92
2022-08-02T12:14:18.378Z,3.08
2022-08-02T12:17:03.566Z,3.13
2022-08-02T12:19:33.202Z,3.65
2022-08-02T12:22:16.679Z,3.88
2022-08-02T12:24:49.098Z,4.15
2022-08-02T12:27:33.259Z,3.30
2022-08-02T12:30:06.858Z,4.07
2022-08-02T12:32:35.089Z,3.30
2022-08-02T12:35:07.073Z,3.28
2022-08-02T12:37:35.156Z,2.80
2022-08-02T12:40:18.835Z,2.97
2022-08-02T12:42:55.636Z,3.05
2022-08-02T12:45:36.499Z,3.40
2022-08-02T12:48:07.706Z,2.80
2022-08-02T12:50:38.196Z,2.90
2022-08-02T12:53:17.584Z,2.70
2022-08-02T12:56:00.678Z,3.08
2022-08-02T12:58:31.770Z,2.80
2022-08-02T13:01:00.548Z,3.35
2022-08-02T13:04:12.214Z,2.75
2022-08-02T13:09:14.023Z,3.00
2022-08-02T13:11:43.528Z,3.15
2022-08-02T13:14:12.185Z,3.38
2022-08-02T13:16:40.697Z,4.85
2022-08-02T13:19:08.857Z,2.88
2022-08-02T13:21:41.791Z,3.05
2022-08-02T13:24:38.742Z,3.20
2022-08-02T13:27:09.977Z,3.42
2022-08-02T13:29:38.344Z,6.32
2022-08-02T13:32:06.753Z,3.13
2022-08-02T13:34:34.830Z,3.10
2022-08-02T13:37:04.549Z,3.20
2022-08-02T13:39:32.748Z,2.70
2022-08-02T13:42:00.896Z,3.05
2022-08-02T13:44:29.000Z,2.40
2022-08-02T13:46:57.131Z,2.60
2022-08-02T13:49:50.643Z,2.70
2022-08-02T13:52:15.508Z,3.03
2022-08-02T13:54:44.031Z,2.53
2022-08-02T13:57:12.139Z,2.28
2022-08-02T13:59:57.137Z,2.88
2022-08-02T14:02:28.661Z,2.80
2022-08-02T14:04:57.098Z,3.30
2022-08-02T14:07:26.695Z,2.88
2022-08-02T14:09:54.991Z,2.80
2022-08-02T14:12:23.132Z,2.58
2022-08-02T14:14:51.767Z,3.95
2022-08-02T14:17:20.130Z,3.85
2022-08-02T14:19:48.527Z,3.47
2022-08-02T14:22:16.738Z,3.17
2022-08-02T14:24:46.325Z,2.78
2022-08-02T14:27:15.772Z,3.25
2022-08-02T14:29:44.020Z,3.08
2022-08-02T14:32:12.366Z,4.07
2022-08-02T14:34:40.868Z,3.13
2022-08-02T14:37:09.046Z,2.72
2022-08-02T14:39:43.386Z,2.55
2022-08-02T14:42:26.671Z,3.60
2022-08-02T14:44:54.998Z,3.25
2022-08-02T14:47:23.264Z,3.08
2022-08-02T14:49:51.810Z,3.22
2022-08-02T14:52:20.222Z,2.72
2022-08-02T14:54:48.694Z,3.05
2022-08-02T14:57:16.849Z,3.05
2022-08-02T14:59:47.510Z,5.00
2022-08-02T15:02:16.321Z,2.70
2022-08-02T15:04:44.568Z,2.90
2022-08-02T15:07:14.066Z,2.72
2022-08-02T15:09:43.199Z,2.80
2022-08-02T15:12:11.766Z,2.55
2022-08-02T15:14:40.182Z,3.20
2022-08-02T15:17:09.492Z,3.80
2022-08-02T15:19:56.621Z,3.42
2022-08-02T15:22:25.433Z,2.75
2022-08-02T15:24:54.252Z,5.50
2022-08-02T15:27:22.142Z,3.47
2022-08-02T15:29:50.070Z,5.45
2022-08-02T15:32:19.844Z,3.65
2022-08-02T15:34:48.714Z,3.10
2022-08-02T15:37:17.004Z,3.22
2022-08-02T15:39:47.434Z,3.22
2022-08-02T15:42:18.540Z,3.58
2022-08-02T15:44:46.462Z,3.67
2022-08-02T15:47:14.415Z,4.78
2022-08-02T15:49:43.924Z,4.15
2022-08-02T15:52:12.351Z,3.03
2022-08-02T15:54:40.573Z,2.97
2022-08-02T15:57:10.690Z,3.55
2022-08-02T15:59:38.694Z,4.05
2022-08-02T16:02:07.071Z,3.45
2022-08-02T16:04:35.373Z,3.25
2022-08-02T16:07:04.988Z,3.15
2022-08-02T16:09:32.965Z,4.80
2022-08-02T16:12:01.025Z,5.60
2022-08-02T16:14:29.639Z,5.13
2022-08-02T16:16:57.634Z,7.00
2022-08-02T16:19:46.311Z,2.67
2022-08-02T16:22:15.229Z,4.97
2022-08-02T16:24:43.678Z,2.88
2022-08-02T16:27:11.869Z,2.70
2022-08-02T16:29:40.067Z,2.47
2022-08-02T16:32:18.678Z,2.78
2022-08-02T16:35:08.547Z,2.22
2022-08-02T16:37:51.717Z,3.67
2022-08-02T16:40:20.762Z,3.35
2022-08-02T16:42:50.888Z,4.18
2022-08-02T16:45:20.189Z,2.88
2022-08-02T16:47:56.191Z,2.88
2022-08-02T16:50:27.154Z,2.15
2022-08-02T16:52:58.812Z,4.05
2022-08-02T16:55:29.288Z,4.78
2022-08-02T16:57:59.042Z,3.03
2022-08-02T17:00:26.948Z,3.47
2022-08-02T17:02:54.831Z,3.33
2022-08-02T17:05:37.673Z,4.63
2022-08-02T17:08:18.061Z,2.70
2022-08-02T17:10:46.163Z,2.75
2022-08-02T17:13:14.003Z,2.42
2022-08-02T17:16:08.100Z,3.85
2022-08-02T17:18:30.154Z,4.70
2022-08-02T17:20:58.117Z,3.88
2022-08-02T17:24:06.240Z,3.33
2022-08-02T17:26:15.444Z,3.88
2022-08-02T17:29:14.144Z,3.72
2022-08-02T17:31:42.952Z,2.95
2022-08-02T17:34:12.411Z,3.15
2022-08-02T17:36:40.259Z,2.75
2022-08-02T17:39:09.663Z,2.42
2022-08-02T17:41:49.182Z,2.55
2022-08-02T17:44:36.658Z,2.58
2022-08-02T17:47:06.526Z,4.38
2022-08-02T17:49:38.279Z,2.60
2022-08-02T17:52:47.988Z,3.10
2022-08-02T17:55:03.420Z,4.00
2022-08-02T17:57:57.669Z,2.40
2022-08-02T18:00:20.081Z,5.82
2022-08-02T18:02:52.640Z,4.10
2022-08-02T18:05:23.170Z,4.00
2022-08-02T18:07:55.495Z,6.22
2022-08-02T18:10:30.307Z,4.65
2022-08-02T18:12:59.701Z,4.18
2022-08-02T18:15:28.854Z,3.17
2022-08-02T18:18:00.287Z,8.45
2022-08-02T18:20:28.229Z,4.45
2022-08-02T18:22:58.775Z,4.45
2022-08-02T18:25:36.417Z,5.60
2022-08-02T18:28:13.338Z,3.75
2022-08-02T18:30:41.270Z,5.53
2022-08-02T18:33:57.832Z,3.30
2022-08-02T18:35:56.960Z,3.20
2022-08-02T18:38:26.883Z,3.55
2022-08-02T18:40:55.781Z,4.45
2022-08-02T18:43:29.449Z,4.50
2022-08-02T18:46:05.952Z,3.88
2022-08-02T18:48:47.725Z,3.03
2022-08-02T18:51:16.218Z,5.22
2022-08-02T18:53:48.912Z,3.05
2022-08-02T18:56:20.283Z,6.18
2022-08-02T18:58:54.608Z,3.88
2022-08-02T19:01:31.769Z,4.05
2022-08-02T19:04:11.322Z,5.32
2022-08-02T19:06:39.412Z,4.10
2022-08-02T19:09:13.082Z,6.18
2022-08-02T19:11:47.363Z,4.05
2022-08-02T19:14:23.933Z,6.03
2022-08-02T19:16:56.708Z,4.45
2022-08-02T19:19:28.781Z,6.95
2022-08-02T19:22:26.443Z,6.63
2022-08-02T19:24:45.769Z,3.80
2022-08-02T19:27:14.674Z,3.90
2022-08-02T19:30:04.096Z,5.40
2022-08-02T19:32:41.366Z,4.10
2022-08-02T19:35:29.672Z,3.40
2022-08-02T19:38:07.290Z,4.20
2022-08-02T19:40:35.249Z,4.07
2022-08-02T19:44:24.048Z,4.88
2022-08-02T19:45:53.329Z,3.92
2022-08-02T19:48:26.839Z,6.00
2022-08-02T19:51:00.965Z,6.15
2022-08-02T19:53:48.432Z,3.85
2022-08-02T19:56:25.111Z,3.47
2022-08-02T19:58:54.836Z,3.85
2022-08-02T20:01:37.006Z,4.05
2022-08-02T20:04:06.763Z,6.13
2022-08-02T20:06:34.647Z,7.22
2022-08-02T20:09:03.455Z,4.57
2022-08-02T20:11:34.641Z,4.15
2022-08-02T20:14:04.091Z,6.55
2022-08-02T20:16:33.430Z,8.38
2022-08-02T20:19:02.257Z,3.65
2022-08-02T20:21:36.398Z,3.35
2022-08-02T20:24:07.109Z,2.75
2022-08-02T20:26:35.704Z,4.68
2022-08-02T20:29:05.985Z,7.35
2022-08-02T20:31:37.399Z,3.22
2022-08-02T20:34:05.605Z,3.78
2022-08-02T20:36:35.134Z,3.63
2022-08-02T20:39:02.998Z,4.25
2022-08-02T20:41:37.307Z,3.63
2022-08-02T20:44:15.766Z,5.47
2022-08-02T20:46:59.454Z,5.28
2022-08-02T20:49:40.542Z,3.63
2022-08-02T20:52:23.404Z,2.90
2022-08-02T20:54:52.563Z,3.03
2022-08-02T20:57:20.434Z,4.65
2022-08-02T21:00:09.111Z,3.35
2022-08-02T21:02:38.399Z,4.13
2022-08-02T21:05:17.543Z,3.15
2022-08-02T21:07:47.889Z,4.07
2022-08-02T21:10:21.481Z,11.13
2022-08-02T21:12:52.077Z,3.85
2022-08-02T21:15:19.905Z,3.83
2022-08-02T21:17:51.524Z,4.07
2022-08-02T21:20:27.515Z,3.38
2022-08-02T21:22:58.025Z,3.08
2022-08-02T21:25:42.798Z,8.20
2022-08-02T21:28:17.499Z,4.93
2022-08-02T21:30:46.052Z,4.95
2022-08-02T21:33:18.121Z,3.78
2022-08-02T21:35:52.256Z,3.78
2022-08-02T21:38:35.566Z,3.83
2022-08-02T21:41:06.312Z,3.90
2022-08-02T21:43:40.491Z,6.45
2022-08-02T21:46:14.789Z,4.22
2022-08-02T21:48:44.562Z,3.95
2022-08-02T21:51:15.860Z,4.72
2022-08-02T21:54:18.056Z,3.58
2022-08-02T21:56:33.309Z,5.65
2022-08-02T21:59:15.867Z,4.30
2022-08-02T22:01:52.273Z,5.13
2022-08-02T22:04:23.169Z,3.47
2022-08-02T22:06:51.955Z,5.95
2022-08-02T22:09:43.146Z,5.93
2022-08-02T22:12:10.186Z,4.68
2022-08-02T22:14:41.088Z,4.22
2022-08-02T22:17:13.634Z,6.68
2022-08-02T22:19:53.734Z,4.50
2022-08-02T22:22:28.281Z,6.35
2022-08-02T22:24:57.120Z,5.13
2022-08-02T22:28:35.977Z,4.78
2022-08-02T22:30:13.654Z,5.00
2022-08-02T22:33:00.259Z,4.88
2022-08-02T22:35:30.508Z,6.25
2022-08-02T22:38:17.586Z,4.38
2022-08-02T22:40:46.801Z,5.15
2022-08-02T22:46:02.790Z,4.88
2022-08-02T22:48:30.910Z,6.43
2022-08-02T22:51:01.816Z,4.40
2022-08-02T22:53:35.451Z,5.25
2022-08-02T22:56:03.988Z,4.70
2022-08-02T22:58:32.712Z,5.05
2022-08-02T23:01:00.892Z,4.63
2022-08-02T23:03:28.948Z,4.90
2022-08-02T23:05:56.906Z,6.05
2022-08-02T23:08:26.306Z,5.18
2022-08-02T23:10:54.156Z,4.80
2022-08-02T23:13:26.625Z,4.88
2022-08-02T23:16:13.887Z,4.97
2022-08-02T23:19:04.692Z,6.45
2022-08-02T23:22:00.950Z,4.90
2022-08-02T23:24:23.716Z,7.13
2022-08-02T23:26:51.675Z,4.40
2022-08-02T23:29:19.635Z,6.07
2022-08-02T23:31:47.629Z,6.18
2022-08-02T23:34:15.626Z,4.90
2022-08-02T23:36:43.652Z,4.55
2022-08-02T23:39:11.696Z,4.60
2022-08-02T23:41:41.072Z,4.60
2022-08-02T23:44:14.085Z,4.72
2022-08-02T23:46:43.241Z,4.78
2022-08-02T23:49:12.544Z,5.75
2022-08-02T23:51:40.493Z,5.23
2022-08-02T23:54:08.616Z,5.73
2022-08-02T23:56:37.588Z,4.37
2022-08-02T23:59:07.696Z,4.23
